This is the latest recevied weather packets stored in our database for station/object JH5EWP-13. If no packets are shown the sender has not sent any weather packets the latest 10 day(s).
| Time | Temp. | Humidity | Pressure | Rain* | Wind** | Luminosity | Snow |
|---|---|---|---|---|---|---|---|
| 1777537756 | 17.22° C | 72% | 1000.2 hPa | 0 mm | - | - | - |
| 1777536856 | 18.33° C | 70% | 1000.1 hPa | 0 mm | - | - | - |
| 1777535956 | 18.33° C | 72% | 1000.1 hPa | 0 mm | - | - | - |
| 1777535056 | 16.67° C | 76% | 1000.7 hPa | 0 mm | - | - | - |
| 1777534156 | 16.67° C | 75% | 1000.7 hPa | 0 mm | - | - | - |
| 1777533256 | 16.67° C | 74% | 1001.2 hPa | 0 mm | - | - | - |
| 1777532356 | 17.22° C | 74% | 1001.4 hPa | 0 mm | - | - | - |
| 1777531456 | 16.67° C | 76% | 1001.4 hPa | 0 mm | - | - | - |
| 1777530556 | 16.67° C | 76% | 1001.9 hPa | 0 mm | - | - | - |
| 1777529656 | 16.67° C | 76% | 1002 hPa | 0 mm | - | - | - |
| 1777528755 | 16.67° C | 77% | 1002.2 hPa | 0 mm | - | - | - |
| 1777527855 | 16.67° C | 77% | 1002.4 hPa | 0 mm | - | - | - |
| 1777526955 | 16.67° C | 78% | 1002.4 hPa | 0 mm | - | - | - |
| 1777526055 | 16.67° C | 79% | 1002.6 hPa | 0 mm | - | - | - |
| 1777525155 | 17.22° C | 79% | 1002.9 hPa | 0 mm | - | - | - |
| 1777524255 | 17.22° C | 80% | 1003.2 hPa | 0 mm | - | - | - |
| 1777523357 | 17.22° C | 80% | 1003.2 hPa | 0 mm | - | - | - |
| 1777522457 | 17.22° C | 81% | 1003.8 hPa | 0 mm | - | - | - |
| 1777521557 | 16.67° C | 81% | 1003.9 hPa | 0 mm | - | - | - |
| 1777520657 | 16.67° C | 81% | 1004.4 hPa | 0 mm | - | - | - |
| 1777519757 | 16.11° C | 81% | 1004.8 hPa | 0.25 mm | - | - | - |
| 1777518856 | 16.11° C | 81% | 1005.1 hPa | 0.25 mm | - | - | - |
| 1777517956 | 16.11° C | 83% | 1005.1 hPa | 0.25 mm | - | - | - |
| 1777517056 | 16.11° C | 84% | 1005.5 hPa | 0.51 mm | - | - | - |
| 1777516156 | 15.56° C | 85% | 1005.8 hPa | 0.51 mm | - | - | - |
* Rain latest hour (hover to see other rain measurements)
** Current wind speed in m/s (hover to see current wind gust speed)